Time;durP1;ratioP1;P1;durP2;ratioP2;P2;SDS_P1;SDS_P2;PMS_P1;PMS_P2;Temp;Humidity;BMP_temperature;BMP_pressure;BME280_temperature;BME280_humidity;BME280_pressure;Samples;Min_cycle;Max_cycle;Signal;HPM_P1;HPM_P2
2024/01/17 00:01:20;;;;;;;4.45;3.38;;;;;;;;;;4737489;30;20511;-94
2024/01/17 00:03:46;;;;;;;5.60;2.70;;;;;;;;;;4710135;30;20477;-94
2024/01/17 00:06:12;;;;;;;7.63;3.50;;;;;;;;;;4737431;30;20048;-96
2024/01/17 00:08:38;;;;;;;6.13;3.45;;;;;;;;;;4737471;30;20064;-96
2024/01/17 00:11:04;;;;;;;7.97;4.07;;;;;;;;;;4738934;30;20543;-95
2024/01/17 00:13:34;;;;;;;6.03;3.63;;;;;;;;;;4737865;30;20051;-96
2024/01/17 00:16:00;;;;;;;5.05;3.50;;;;;;;;;;4723721;30;20056;-96
2024/01/17 00:18:27;;;;;;;5.70;3.55;;;;;;;;;;4737506;30;20056;-96
2024/01/17 00:20:53;;;;;;;8.15;3.40;;;;;;;;;;4708476;30;20076;-94
2024/01/17 00:23:19;;;;;;;8.10;3.63;;;;;;;;;;4730098;30;20091;-95
2024/01/17 00:25:45;;;;;;;6.90;4.00;;;;;;;;;;4737669;30;20570;-96
2024/01/17 00:28:11;;;;;;;5.68;3.78;;;;;;;;;;4737383;30;20052;-94
2024/01/17 00:30:37;;;;;;;13.98;3.92;;;;;;;;;;4738309;30;20059;-93
2024/01/17 00:33:04;;;;;;;10.98;3.65;;;;;;;;;;4737215;30;20571;-95
2024/01/17 00:35:30;;;;;;;5.80;3.67;;;;;;;;;;4737340;30;20124;-94
2024/01/17 00:37:56;;;;;;;5.70;3.67;;;;;;;;;;4736480;30;20064;-94
2024/01/17 00:40:24;;;;;;;6.70;4.05;;;;;;;;;;4721682;30;20053;-94
2024/01/17 00:42:50;;;;;;;6.50;4.18;;;;;;;;;;4719791;30;20095;-95
2024/01/17 00:45:16;;;;;;;5.90;4.68;;;;;;;;;;4719875;30;20056;-94
2024/01/17 00:47:43;;;;;;;5.15;3.97;;;;;;;;;;4730513;30;20060;-94
2024/01/17 00:50:09;;;;;;;7.05;4.30;;;;;;;;;;4743185;30;20073;-94
2024/01/17 00:52:35;;;;;;;9.40;5.18;;;;;;;;;;4755358;30;20588;-96
2024/01/17 00:55:01;;;;;;;10.75;5.13;;;;;;;;;;4755124;30;20052;-95
2024/01/17 00:57:27;;;;;;;9.23;5.35;;;;;;;;;;4755067;30;20082;-95
2024/01/17 00:59:53;;;;;;;8.38;4.93;;;;;;;;;;4755076;30;20597;-95
2024/01/17 01:02:22;;;;;;;8.15;4.65;;;;;;;;;;4737055;30;20088;-96
2024/01/17 01:04:48;;;;;;;9.02;4.75;;;;;;;;;;4737382;30;20060;-96
2024/01/17 01:07:15;;;;;;;5.90;4.25;;;;;;;;;;4752021;30;20056;-96
2024/01/17 01:09:41;;;;;;;8.20;4.93;;;;;;;;;;4754411;30;20081;-95
2024/01/17 01:12:13;;;;;;;9.32;5.55;;;;;;;;;;4755173;30;20059;-96
2024/01/17 01:14:39;;;;;;;12.95;5.53;;;;;;;;;;4755567;30;20095;-94
2024/01/17 01:17:05;;;;;;;10.27;4.93;;;;;;;;;;4754720;30;20201;-95
2024/01/17 01:19:31;;;;;;;9.73;6.25;;;;;;;;;;4737556;30;20104;-94
2024/01/17 01:21:57;;;;;;;4.97;4.47;;;;;;;;;;4737473;30;20511;-94
2024/01/17 01:24:23;;;;;;;6.93;5.40;;;;;;;;;;4737054;30;20065;-94
2024/01/17 01:26:49;;;;;;;10.15;5.88;;;;;;;;;;4751897;30;20082;-95
2024/01/17 01:29:15;;;;;;;7.35;5.38;;;;;;;;;;4754824;30;20101;-94
2024/01/17 01:31:41;;;;;;;8.18;4.43;;;;;;;;;;4753323;30;20063;-95
2024/01/17 01:34:08;;;;;;;7.90;5.25;;;;;;;;;;4736994;30;20048;-94
2024/01/17 01:36:37;;;;;;;8.45;5.35;;;;;;;;;;4737149;30;20415;-95
2024/01/17 01:39:03;;;;;;;15.05;5.78;;;;;;;;;;4737160;30;20060;-94
2024/01/17 01:41:29;;;;;;;10.65;6.22;;;;;;;;;;4736897;30;20056;-95
2024/01/17 01:43:56;;;;;;;6.97;5.55;;;;;;;;;;4737185;30;20061;-94
2024/01/17 01:46:45;;;;;;;7.50;5.60;;;;;;;;;;4738269;30;20094;-95
2024/01/17 01:49:47;;;;;;;8.25;6.03;;;;;;;;;;4734752;30;20138;-96
2024/01/17 01:52:17;;;;;;;10.77;5.50;;;;;;;;;;4745550;30;20180;-96
2024/01/17 01:57:50;;;;;;;8.70;5.63;;;;;;;;;;4718270;30;20523;-96
2024/01/17 02:00:28;;;;;;;12.70;5.95;;;;;;;;;;4734010;30;20055;-96
2024/01/17 02:03:13;;;;;;;8.10;5.22;;;;;;;;;;4719120;30;20056;-96
2024/01/17 02:06:06;;;;;;;;;;;;;;;;;;;;;
2024/01/17 02:08:46;;;;;;;12.52;6.45;;;;;;;;;;4693740;30;20508;-96
2024/01/17 02:11:35;;;;;;;;;;;;;;;;;;;;;
2024/01/17 02:14:17;;;;;;;11.85;7.35;;;;;;;;;;4698474;30;20101;-96
2024/01/17 02:23:36;;;;;;;;;;;;;;;;;;;;;
2024/01/17 02:26:42;;;;;;;8.77;5.93;;;;;;;;;;4654315;30;20164;-96
2024/01/17 02:33:44;;;;;;;;;;;;;;;;;;;;;
2024/01/17 02:49:47;;;;;;;;;;;;;;;;;;;;;
2024/01/17 02:56:26;;;;;;;14.55;7.65;;;;;;;;;;4758462;30;20091;-96
2024/01/17 02:59:42;;;;;;;;;;;;;;;;;;;;;
2024/01/17 03:13:12;;;;;;;;;;;;;;;;;;;;;
2024/01/17 03:19:56;;;;;;;12.30;7.78;;;;;;;;;;4708436;30;20044;-96
2024/01/17 03:37:33;;;;;;;13.57;7.70;;;;;;;;;;4637103;30;20050;-96
2024/01/17 03:58:16;;;;;;;12.15;8.10;;;;;;;;;;4576535;31;20530;-96
2024/01/17 04:06:55;;;;;;;15.95;8.32;;;;;;;;;;4653756;30;20062;-95
2024/01/17 04:10:14;;;;;;;;;;;;;;;;;;;;;
2024/01/17 04:16:27;;;;;;;12.25;8.07;;;;;;;;;;4680648;30;20061;-96
2024/01/17 04:19:25;;;;;;;14.02;8.82;;;;;;;;;;4668581;30;20050;-96
2024/01/17 04:22:34;;;;;;;;;;;;;;;;;;;;;
2024/01/17 04:25:21;;;;;;;;;;;;;;;;;;;;;
2024/01/17 04:46:10;;;;;;;17.38;8.23;;;;;;;;;;4620801;31;20085;-96
2024/01/17 04:48:50;;;;;;;17.08;8.68;;;;;;;;;;4590963;31;20055;-96
2024/01/17 05:29:57;;;;;;;16.05;9.32;;;;;;;;;;4789993;29;20096;-96
2024/01/17 05:35:53;;;;;;;15.52;10.43;;;;;;;;;;4757728;30;20062;-96
2024/01/17 05:41:45;;;;;;;17.17;10.32;;;;;;;;;;4783185;24;20055;-96
2024/01/17 06:50:34;;;;;;;12.65;9.32;;;;;;;;;;4771390;30;20048;-96
2024/01/17 06:53:00;;;;;;;15.93;8.93;;;;;;;;;;4728896;30;20071;-96
2024/01/17 06:55:26;;;;;;;14.07;8.48;;;;;;;;;;4742396;30;20056;-94
2024/01/17 06:57:52;;;;;;;12.88;8.80;;;;;;;;;;4741579;30;20514;-95
2024/01/17 07:00:20;;;;;;;13.02;9.20;;;;;;;;;;4741952;30;20051;-94
2024/01/17 07:02:47;;;;;;;17.40;8.48;;;;;;;;;;4756096;30;20059;-96
2024/01/17 07:05:13;;;;;;;12.68;8.57;;;;;;;;;;4752968;30;20056;-96
2024/01/17 07:07:39;;;;;;;14.90;8.80;;;;;;;;;;4752136;30;20425;-94
2024/01/17 07:10:08;;;;;;;14.82;8.45;;;;;;;;;;4752611;30;20501;-95
2024/01/17 07:12:34;;;;;;;14.25;9.35;;;;;;;;;;4735040;30;20040;-95
2024/01/17 07:15:00;;;;;;;15.25;9.82;;;;;;;;;;4725341;30;20087;-95
2024/01/17 07:17:26;;;;;;;10.93;9.00;;;;;;;;;;4738290;30;20083;-95
2024/01/17 07:19:52;;;;;;;15.18;9.98;;;;;;;;;;4747765;30;20546;-94
2024/01/17 07:22:18;;;;;;;12.02;8.38;;;;;;;;;;4745594;30;20058;-93
2024/01/17 07:24:45;;;;;;;16.35;9.85;;;;;;;;;;4724134;30;20059;-93
2024/01/17 07:27:14;;;;;;;12.73;9.13;;;;;;;;;;4737134;30;20166;-95
2024/01/17 07:29:40;;;;;;;11.93;7.80;;;;;;;;;;4729997;30;20121;-92
2024/01/17 07:32:06;;;;;;;14.10;8.88;;;;;;;;;;4728839;30;20442;-94
2024/01/17 07:34:32;;;;;;;13.05;8.90;;;;;;;;;;4732011;30;20075;-91
2024/01/17 07:39:27;;;;;;;10.25;7.35;;;;;;;;;;5062472;24;20056;-94
2024/01/17 07:41:55;;;;;;;12.77;8.48;;;;;;;;;;4750547;30;20134;-95
2024/01/17 07:47:55;;;;;;;12.32;8.30;;;;;;;;;;4722622;29;20086;-93
2024/01/17 07:50:24;;;;;;;14.32;8.65;;;;;;;;;;4750752;29;20059;-94
2024/01/17 07:52:50;;;;;;;16.23;7.70;;;;;;;;;;4736401;30;20067;-93
2024/01/17 07:55:16;;;;;;;14.38;8.85;;;;;;;;;;4750104;30;20090;-94
2024/01/17 07:57:42;;;;;;;14.35;8.48;;;;;;;;;;4735502;30;20055;-94
2024/01/17 08:00:08;;;;;;;11.90;8.30;;;;;;;;;;4751505;30;20051;-94
2024/01/17 08:02:35;;;;;;;14.93;7.95;;;;;;;;;;4762275;30;20059;-95
2024/01/17 08:05:01;;;;;;;13.18;9.50;;;;;;;;;;4752837;30;20059;-94
2024/01/17 08:07:27;;;;;;;16.70;8.70;;;;;;;;;;4734962;30;20051;-93
2024/01/17 08:09:53;;;;;;;11.73;8.55;;;;;;;;;;4736417;29;20069;-92
2024/01/17 08:12:19;;;;;;;12.63;7.93;;;;;;;;;;4765039;30;20066;-94
2024/01/17 08:14:46;;;;;;;10.63;8.50;;;;;;;;;;4734591;30;20087;-94
2024/01/17 08:17:12;;;;;;;16.88;9.77;;;;;;;;;;4763408;30;20078;-93
2024/01/17 08:19:39;;;;;;;14.05;8.82;;;;;;;;;;4750388;30;20105;-94
2024/01/17 08:22:05;;;;;;;15.93;9.25;;;;;;;;;;4748199;30;20067;-95
2024/01/17 08:24:31;;;;;;;12.48;8.52;;;;;;;;;;4733480;30;20126;-91
2024/01/17 08:26:58;;;;;;;17.33;9.32;;;;;;;;;;4748208;30;20067;-93
2024/01/17 08:32:37;;;;;;;17.08;9.13;;;;;;;;;;4759323;29;20102;-95
2024/01/17 08:35:04;;;;;;;14.68;8.50;;;;;;;;;;4761147;30;20086;-95
2024/01/17 08:37:30;;;;;;;15.00;9.57;;;;;;;;;;4747259;30;20067;-92
2024/01/17 08:39:56;;;;;;;12.70;8.43;;;;;;;;;;4745246;30;20062;-94
2024/01/17 08:42:22;;;;;;;13.65;9.00;;;;;;;;;;4748745;30;20069;-92
2024/01/17 08:44:49;;;;;;;13.88;8.52;;;;;;;;;;4748488;30;20070;-93
2024/01/17 08:47:15;;;;;;;12.10;8.18;;;;;;;;;;4748435;30;20054;-95
2024/01/17 08:49:41;;;;;;;17.02;8.70;;;;;;;;;;4761625;30;20059;-95
2024/01/17 08:52:08;;;;;;;17.30;8.32;;;;;;;;;;4749094;30;20141;-93
2024/01/17 08:54:37;;;;;;;14.30;9.30;;;;;;;;;;4748735;30;20144;-95
2024/01/17 08:57:04;;;;;;;16.00;9.45;;;;;;;;;;4747763;30;20051;-94
2024/01/17 08:59:31;;;;;;;13.57;10.13;;;;;;;;;;4765097;30;20062;-96
2024/01/17 09:01:59;;;;;;;12.05;9.15;;;;;;;;;;4752941;30;20059;-95
2024/01/17 09:04:26;;;;;;;11.93;8.55;;;;;;;;;;4739826;30;20097;-95
2024/01/17 09:06:52;;;;;;;17.20;8.68;;;;;;;;;;4753193;30;20054;-94
2024/01/17 09:09:20;;;;;;;15.73;8.20;;;;;;;;;;4739072;30;20124;-95
2024/01/17 09:11:46;;;;;;;16.20;9.85;;;;;;;;;;4738932;30;20140;-94
2024/01/17 09:14:12;;;;;;;15.90;8.80;;;;;;;;;;4753313;30;20063;-95
2024/01/17 09:16:38;;;;;;;14.10;7.97;;;;;;;;;;4766847;30;20059;-93
2024/01/17 09:19:05;;;;;;;15.93;9.88;;;;;;;;;;4739377;30;20063;-95
2024/01/17 09:21:31;;;;;;;16.38;9.45;;;;;;;;;;4766200;30;20055;-95
2024/01/17 09:23:57;;;;;;;10.75;8.85;;;;;;;;;;4757477;30;20062;-96
2024/01/17 09:26:23;;;;;;;10.77;8.30;;;;;;;;;;4756181;29;20050;-95
2024/01/17 09:28:50;;;;;;;11.65;8.80;;;;;;;;;;4756390;30;20051;-96
2024/01/17 09:31:18;;;;;;;14.82;8.35;;;;;;;;;;4756356;30;20059;-94
2024/01/17 09:33:45;;;;;;;11.98;8.07;;;;;;;;;;4741731;30;20063;-95
2024/01/17 09:36:11;;;;;;;11.90;8.00;;;;;;;;;;4767946;30;20058;-95
2024/01/17 09:38:37;;;;;;;11.63;7.30;;;;;;;;;;4768297;29;20047;-95
2024/01/17 09:41:04;;;;;;;14.85;9.18;;;;;;;;;;4753808;30;20051;-95
2024/01/17 09:43:30;;;;;;;12.77;8.98;;;;;;;;;;4770917;30;20055;-95
2024/01/17 09:45:59;;;;;;;13.63;8.75;;;;;;;;;;4766129;30;20048;-96
2024/01/17 09:48:26;;;;;;;11.18;7.90;;;;;;;;;;4754302;30;20071;-95
2024/01/17 09:50:52;;;;;;;10.63;6.90;;;;;;;;;;4754179;30;20063;-95
2024/01/17 09:53:23;;;;;;;11.77;6.65;;;;;;;;;;4754919;30;20116;-96
2024/01/17 09:55:50;;;;;;;15.13;9.10;;;;;;;;;;4755880;30;20063;-95
2024/01/17 09:58:17;;;;;;;13.75;8.63;;;;;;;;;;4753713;30;20086;-96
2024/01/17 10:00:43;;;;;;;9.43;7.82;;;;;;;;;;4768129;30;20654;-96
2024/01/17 10:03:20;;;;;;;16.08;8.50;;;;;;;;;;4740705;30;20139;-96
2024/01/17 10:05:50;;;;;;;10.55;7.50;;;;;;;;;;4769255;30;20056;-96
2024/01/17 10:08:21;;;;;;;8.82;7.57;;;;;;;;;;4771655;30;20185;-96
2024/01/17 10:13:18;;;;;;;12.23;7.93;;;;;;;;;;4799606;24;20446;-96
2024/01/17 10:15:50;;;;;;;18.52;8.07;;;;;;;;;;4755076;30;20067;-96
2024/01/17 10:18:19;;;;;;;15.18;8.23;;;;;;;;;;4764919;30;20086;-96
2024/01/17 10:20:59;;;;;;;16.27;8.48;;;;;;;;;;4784892;24;21334;-96
2024/01/17 10:23:26;;;;;;;14.05;9.10;;;;;;;;;;4757741;30;20051;-95
2024/01/17 10:31:15;;;;;;;12.93;7.73;;;;;;;;;;5318353;24;20055;-96
2024/01/17 14:19:33;;;;;;;13.73;8.57;;;;;;;;;;1826875;24;20329;-93
2024/01/17 14:22:00;;;;;;;11.43;7.70;;;;;;;;;;4757963;30;20060;-92
2024/01/17 14:24:29;;;;;;;14.70;10.05;;;;;;;;;;4745965;30;20175;-96
2024/01/17 14:26:55;;;;;;;14.65;8.88;;;;;;;;;;4774737;29;20092;-94
2024/01/17 14:29:21;;;;;;;11.38;8.13;;;;;;;;;;4757191;30;20095;-94
2024/01/17 14:31:51;;;;;;;14.00;8.93;;;;;;;;;;4758164;30;20044;-94
2024/01/17 14:34:20;;;;;;;16.60;9.23;;;;;;;;;;4744920;30;20060;-95
2024/01/17 14:36:49;;;;;;;15.57;8.63;;;;;;;;;;4760094;30;20064;-96
2024/01/17 14:39:20;;;;;;;12.02;8.13;;;;;;;;;;4759607;30;20137;-96
2024/01/17 14:41:49;;;;;;;10.20;8.88;;;;;;;;;;4761748;30;20522;-94
2024/01/17 14:44:17;;;;;;;15.77;8.07;;;;;;;;;;4761124;30;20073;-95
2024/01/17 14:46:46;;;;;;;14.02;8.88;;;;;;;;;;4761434;30;20060;-94
2024/01/17 14:49:15;;;;;;;19.17;9.32;;;;;;;;;;4759480;30;20052;-96
2024/01/17 14:51:41;;;;;;;14.80;7.82;;;;;;;;;;4747782;30;20056;-93
2024/01/17 14:54:08;;;;;;;12.75;8.43;;;;;;;;;;4760692;30;20545;-95
2024/01/17 14:56:39;;;;;;;11.20;7.82;;;;;;;;;;4763009;30;20133;-93
2024/01/17 14:59:07;;;;;;;14.88;8.27;;;;;;;;;;4761840;30;20071;-94
2024/01/17 15:01:34;;;;;;;14.75;9.27;;;;;;;;;;4758029;30;20090;-94
2024/01/17 15:04:06;;;;;;;12.55;9.25;;;;;;;;;;4760019;30;20056;-94
2024/01/17 15:06:32;;;;;;;13.43;9.40;;;;;;;;;;4745210;30;20114;-94
2024/01/17 15:09:01;;;;;;;11.80;8.75;;;;;;;;;;4744531;30;20086;-96
2024/01/17 15:11:27;;;;;;;17.00;8.57;;;;;;;;;;4758509;30;20055;-96
2024/01/17 15:13:53;;;;;;;12.95;8.55;;;;;;;;;;4759817;30;20056;-95
2024/01/17 15:16:23;;;;;;;17.77;9.25;;;;;;;;;;4758144;30;20048;-94
2024/01/17 15:18:50;;;;;;;13.95;8.75;;;;;;;;;;4760265;30;20052;-93
2024/01/17 15:21:16;;;;;;;14.95;8.88;;;;;;;;;;4772723;30;20066;-94
2024/01/17 15:23:45;;;;;;;16.38;9.43;;;;;;;;;;4793520;29;20052;-94
2024/01/17 15:26:11;;;;;;;12.57;8.60;;;;;;;;;;4791515;29;20067;-94
2024/01/17 15:28:40;;;;;;;13.88;10.02;;;;;;;;;;4763409;30;20055;-94
2024/01/17 15:31:07;;;;;;;15.05;8.77;;;;;;;;;;4761971;30;20058;-93
2024/01/17 15:33:34;;;;;;;13.32;9.35;;;;;;;;;;4778826;30;20071;-94
2024/01/17 15:36:07;;;;;;;32.67;10.25;;;;;;;;;;4773771;24;20040;-94
2024/01/17 15:38:35;;;;;;;14.10;9.68;;;;;;;;;;4759445;30;20064;-93
2024/01/17 15:41:05;;;;;;;11.07;8.75;;;;;;;;;;4746675;30;20130;-94
2024/01/17 15:43:32;;;;;;;20.23;9.77;;;;;;;;;;4746796;30;20529;-93
2024/01/17 15:45:59;;;;;;;12.45;10.13;;;;;;;;;;4747627;30;20048;-94
2024/01/17 15:48:28;;;;;;;14.40;9.68;;;;;;;;;;4747728;30;20859;-93
2024/01/17 15:50:56;;;;;;;13.43;9.95;;;;;;;;;;4759612;30;20055;-94
2024/01/17 15:53:23;;;;;;;14.20;9.82;;;;;;;;;;4744823;30;20135;-94
2024/01/17 15:55:49;;;;;;;17.85;9.43;;;;;;;;;;4745950;30;20803;-95
2024/01/17 15:58:16;;;;;;;16.08;10.15;;;;;;;;;;4745004;30;20147;-96
2024/01/17 16:00:42;;;;;;;17.25;10.10;;;;;;;;;;4758947;30;20052;-94
2024/01/17 16:03:15;;;;;;;15.00;9.40;;;;;;;;;;4732988;30;20051;-94
2024/01/17 16:05:41;;;;;;;12.55;9.85;;;;;;;;;;4732476;30;20048;-95
2024/01/17 16:08:10;;;;;;;14.35;9.50;;;;;;;;;;4732434;30;20063;-95
2024/01/17 16:10:40;;;;;;;19.10;10.25;;;;;;;;;;4732743;30;20633;-95
2024/01/17 16:13:17;;;;;;;;;;;;;;;;;;;;;
2024/01/17 16:15:46;;;;;;;11.70;8.35;;;;;;;;;;4761388;30;20052;-94
2024/01/17 16:18:15;;;;;;;16.73;11.00;;;;;;;;;;4732706;30;20082;-95
2024/01/17 16:20:42;;;;;;;15.18;11.23;;;;;;;;;;4761276;30;20052;-95
2024/01/17 16:23:09;;;;;;;18.48;10.63;;;;;;;;;;4750213;30;20047;-95
2024/01/17 16:25:35;;;;;;;14.48;10.65;;;;;;;;;;4762657;30;20409;-95
2024/01/17 16:28:02;;;;;;;12.23;9.57;;;;;;;;;;4748086;30;20069;-95
2024/01/17 16:30:28;;;;;;;17.30;11.23;;;;;;;;;;4746352;30;20118;-94
2024/01/17 16:33:02;;;;;;;19.10;10.68;;;;;;;;;;4747104;30;20410;-95
2024/01/17 16:35:30;;;;;;;18.70;11.35;;;;;;;;;;4734422;30;20058;-94
2024/01/17 16:37:57;;;;;;;16.48;10.90;;;;;;;;;;4746938;30;20058;-95
2024/01/17 16:40:23;;;;;;;15.48;11.77;;;;;;;;;;4748242;30;20051;-96
2024/01/17 16:42:52;;;;;;;15.35;11.40;;;;;;;;;;4761321;30;20146;-96
2024/01/17 16:45:26;;;;;;;15.50;11.43;;;;;;;;;;4766217;30;20097;-95
2024/01/17 16:47:55;;;;;;;14.93;11.25;;;;;;;;;;4743593;30;20138;-95
2024/01/17 16:50:21;;;;;;;19.23;10.98;;;;;;;;;;4755609;30;20075;-95
2024/01/17 16:53:00;;;;;;;;;;;;;;;;;;;;;
2024/01/17 16:55:32;;;;;;;18.23;11.25;;;;;;;;;;4768264;30;20056;-95
2024/01/17 16:58:04;;;;;;;17.58;12.23;;;;;;;;;;4743868;30;20066;-96
2024/01/17 17:00:59;;;;;;;;;;;;;;;;;;;;;
2024/01/17 17:03:41;;;;;;;19.55;11.88;;;;;;;;;;4761369;30;20689;-95
2024/01/17 17:06:33;;;;;;;21.98;11.73;;;;;;;;;;4756420;30;20087;-96
2024/01/17 17:09:33;;;;;;;;;;;;;;;;;;;;;
2024/01/17 17:12:52;;;;;;;18.52;11.98;;;;;;;;;;4747205;30;20051;-96
2024/01/17 17:16:02;;;;;;;;;;;;;;;;;;;;;
2024/01/17 17:26:11;;;;;;;17.45;11.55;;;0.80;99.90;;;;;;4755643;30;20272;-96
2024/01/17 19:09:15;;;;;;;20.00;13.57;;;;;;;;;;4783190;29;20055;-94
2024/01/17 19:12:18;;;;;;;20.33;13.73;;;;;;;;;;4791083;30;20051;-93
2024/01/17 19:15:26;;;;;;;;;;;;;;;;;;;;;
2024/01/17 19:21:28;;;;;;;19.02;13.27;;;;;;;;;;4782663;30;20058;-93
2024/01/17 19:24:11;;;;;;;23.30;13.65;;;;;;;;;;4794731;29;20060;-93
2024/01/17 19:26:44;;;;;;;21.10;13.85;;;;;;;;;;4781152;30;20544;-92
2024/01/17 19:29:11;;;;;;;17.52;13.32;;;;;;;;;;4780183;30;20102;-94
2024/01/17 19:31:52;;;;;;;24.52;13.88;;;;;;;;;;4805663;29;20052;-93
2024/01/17 19:34:19;;;;;;;24.65;14.50;;;;;;;;;;4795666;29;20054;-95
2024/01/17 19:36:45;;;;;;;18.15;13.32;;;;;;;;;;4775035;30;20048;-93
2024/01/17 19:39:11;;;;;;;17.42;13.27;;;;;;;;;;4792719;29;20052;-93
2024/01/17 19:41:38;;;;;;;20.77;14.00;;;;;;;;;;4790403;29;20083;-94
2024/01/17 19:44:04;;;;;;;17.63;12.27;;;;;;;;;;4753071;30;20067;-92
2024/01/17 19:46:30;;;;;;;24.02;13.55;;;;;;;;;;4787356;29;20417;-92
2024/01/17 19:48:56;;;;;;;21.40;13.60;;;;;;;;;;4773863;30;20048;-95
2024/01/17 19:51:22;;;;;;;22.45;13.35;;;;;;;;;;4793910;29;20091;-95
2024/01/17 19:53:49;;;;;;;20.98;13.40;;;;;;;;;;4761201;30;20513;-92
2024/01/17 19:56:15;;;;;;;22.23;14.20;;;;;;;;;;4792096;29;20044;-93
2024/01/17 19:58:46;;;;;;;22.40;13.70;;;;;;;;;;4776844;30;20059;-92
2024/01/17 20:01:12;;;;;;;20.70;14.05;;;;;;;;;;4792022;29;20061;-94
2024/01/17 20:03:44;;;;;;;22.95;13.35;;;;;;;;;;4758258;30;20186;-95
2024/01/17 20:06:13;;;;;;;18.98;13.38;;;;;;;;;;4786033;29;20040;-94
2024/01/17 20:08:39;;;;;;;23.30;14.65;;;;;;;;;;4781943;29;20145;-95
2024/01/17 20:11:06;;;;;;;27.33;13.85;;;;;;;;;;4788122;29;20144;-94
2024/01/17 20:13:32;;;;;;;24.27;14.88;;;;;;;;;;4780087;30;20598;-93
2024/01/17 20:15:59;;;;;;;18.55;14.38;;;;;;;;;;4768613;30;20055;-94
2024/01/17 20:18:25;;;;;;;21.00;13.77;;;;;;;;;;4783864;29;20138;-95
2024/01/17 20:20:51;;;;;;;22.73;13.55;;;;;;;;;;4752942;30;20056;-95
2024/01/17 20:23:20;;;;;;;23.90;13.02;;;;;;;;;;4795604;29;20078;-93
2024/01/17 20:25:49;;;;;;;25.92;14.57;;;;;;;;;;4742902;30;20054;-93
2024/01/17 20:28:15;;;;;;;22.63;15.30;;;;;;;;;;4786012;29;20051;-95
2024/01/17 20:30:42;;;;;;;23.60;15.75;;;;;;;;;;4792629;29;20070;-95
2024/01/17 20:33:08;;;;;;;24.65;15.85;;;;;;;;;;4760448;30;20493;-96
2024/01/17 20:35:34;;;;;;;22.05;14.93;;;;;;;;;;4759033;30;20063;-92
2024/01/17 20:38:00;;;;;;;21.42;14.40;;;;;;;;;;4768971;30;21011;-96
2024/01/17 20:40:30;;;;;;;23.30;12.80;;;;;;;;;;4769279;30;20142;-95
2024/01/17 20:42:56;;;;;;;21.42;14.35;;;;;;;;;;4769744;30;20048;-95
2024/01/17 20:45:22;;;;;;;18.55;15.05;;;;;;;;;;4786227;29;20074;-95
2024/01/17 20:47:49;;;;;;;20.60;13.43;;;;;;;;;;4757435;30;20762;-96
2024/01/17 20:50:18;;;;;;;17.83;13.45;;;;;;;;;;4769730;30;20051;-93
2024/01/17 20:52:47;;;;;;;21.65;12.95;;;;;;;;;;4780624;30;20676;-96
2024/01/17 20:55:13;;;;;;;22.63;13.30;;;;;;;;;;4758125;30;20051;-94
2024/01/17 20:57:40;;;;;;;19.15;12.65;;;;;;;;;;4768322;30;20113;-96
2024/01/17 21:00:12;;;;;;;16.05;12.32;;;;;;;;;;4756211;30;20056;-92
2024/01/17 21:02:39;;;;;;;19.33;12.75;;;;;;;;;;4768902;30;20116;-94
2024/01/17 21:05:06;;;;;;;17.48;12.32;;;;;;;;;;4769805;30;20217;-94
2024/01/17 21:07:35;;;;;;;17.90;11.77;;;;;;;;;;4783974;29;20203;-95
2024/01/17 21:10:01;;;;;;;19.67;11.55;;;;;;;;;;4755888;30;20059;-93
2024/01/17 21:12:27;;;;;;;16.67;10.57;;;;;;;;;;4768923;30;20071;-95
2024/01/17 21:14:54;;;;;;;20.02;10.75;;;;;;;;;;4767939;30;20055;-92
2024/01/17 21:17:28;;;;;;;13.80;11.07;;;;;;;;;;4777175;29;20080;-93
2024/01/17 21:19:55;;;;;;;19.52;10.57;;;;;;;;;;4747507;30;20055;-94
2024/01/17 21:22:21;;;;;;;20.33;10.13;;;;;;;;;;4777833;29;20055;-93
2024/01/17 21:24:47;;;;;;;12.68;9.85;;;;;;;;;;4733810;30;20063;-94
2024/01/17 21:27:13;;;;;;;18.50;9.45;;;;;;;;;;4748248;30;20056;-92
2024/01/17 21:29:42;;;;;;;14.20;9.23;;;;;;;;;;4751389;30;20051;-94
2024/01/17 21:32:08;;;;;;;13.15;8.77;;;;;;;;;;4751666;30;20047;-94
2024/01/17 21:34:35;;;;;;;13.02;8.52;;;;;;;;;;4781811;29;20060;-93
2024/01/17 21:37:02;;;;;;;13.30;9.05;;;;;;;;;;4752827;30;20471;-93
2024/01/17 21:39:28;;;;;;;14.05;9.35;;;;;;;;;;4802753;29;20058;-95
2024/01/17 21:41:57;;;;;;;13.63;9.73;;;;;;;;;;4768747;30;20056;-92
2024/01/17 21:44:24;;;;;;;18.67;9.65;;;;;;;;;;4753605;30;20133;-93
2024/01/17 21:46:53;;;;;;;15.50;9.27;;;;;;;;;;4755729;30;20060;-94
2024/01/17 21:49:20;;;;;;;13.70;9.15;;;;;;;;;;4788926;29;20059;-94
2024/01/17 21:51:46;;;;;;;18.25;9.68;;;;;;;;;;4769736;30;20052;-92
2024/01/17 21:54:13;;;;;;;14.95;8.23;;;;;;;;;;4773360;30;20123;-92
2024/01/17 21:56:39;;;;;;;14.27;9.45;;;;;;;;;;4768684;30;20048;-95
2024/01/17 21:59:05;;;;;;;15.77;9.93;;;;;;;;;;4799464;29;20060;-95
2024/01/17 22:01:31;;;;;;;10.93;8.20;;;;;;;;;;4759311;30;20059;-91
2024/01/17 22:04:03;;;;;;;18.10;7.85;;;;;;;;;;4787582;24;20052;-96
2024/01/17 22:06:36;;;;;;;18.23;8.63;;;;;;;;;;4813400;24;20059;-93
2024/01/17 22:12:32;;;;;;;14.48;8.35;;;;;;;;;;4775169;29;20076;-95
2024/01/17 22:15:02;;;;;;;11.02;7.43;;;;;;;;;;4760944;30;20062;-93
2024/01/17 22:17:34;;;;;;;11.77;7.47;;;;;;;;;;4762999;30;20051;-93
2024/01/17 22:20:00;;;;;;;10.98;7.57;;;;;;;;;;4748208;30;20317;-93
2024/01/17 22:22:26;;;;;;;9.90;7.75;;;;;;;;;;4750523;30;20060;-91
2024/01/17 22:24:52;;;;;;;12.05;8.27;;;;;;;;;;4758633;30;20070;-93
2024/01/17 22:27:19;;;;;;;16.50;8.48;;;;;;;;;;4784565;30;20051;-92
2024/01/17 22:29:45;;;;;;;17.40;8.15;;;;;;;;;;4768712;30;20063;-94
2024/01/17 22:32:11;;;;;;;17.52;11.07;;;;;;;;;;4737389;30;20063;-92
2024/01/17 22:34:39;;;;;;;21.67;8.68;;;;;;;;;;4766433;30;20138;-92
2024/01/17 22:37:05;;;;;;;18.88;9.20;;;;;;;;;;4765929;30;20060;-93
2024/01/17 22:39:32;;;;;;;16.42;8.65;;;;;;;;;;4751014;30;20163;-94
2024/01/17 22:42:00;;;;;;;21.35;11.00;;;;;;;;;;4764926;30;20066;-94
2024/01/17 22:44:28;;;;;;;20.08;8.30;;;;;;;;;;4750278;30;20056;-93
2024/01/17 22:46:54;;;;;;;26.77;8.48;;;;;;;;;;4763926;30;20490;-93
2024/01/17 22:49:21;;;;;;;13.82;8.48;;;;;;;;;;4748251;30;20075;-93
2024/01/17 22:51:56;;;;;;;17.27;8.82;;;;;;;;;;4763713;30;20055;-92
2024/01/17 22:54:25;;;;;;;16.10;9.40;;;;;;;;;;4778766;30;20055;-93
2024/01/17 22:56:53;;;;;;;13.88;7.30;;;;;;;;;;4761282;30;20119;-94
2024/01/17 22:59:19;;;;;;;20.95;7.55;;;;;;;;;;4747952;30;20082;-94
2024/01/17 23:01:47;;;;;;;12.57;7.68;;;;;;;;;;4745173;30;20056;-93
2024/01/17 23:04:13;;;;;;;10.98;7.32;;;;;;;;;;4746316;30;20059;-93
2024/01/17 23:06:39;;;;;;;11.63;5.50;;;;;;;;;;4760423;30;20476;-93
2024/01/17 23:09:05;;;;;;;9.98;4.35;;;;;;;;;;4762414;30;20090;-94
2024/01/17 23:11:33;;;;;;;8.30;4.20;;;;;;;;;;4750044;30;20055;-94
2024/01/17 23:14:00;;;;;;;5.80;3.17;;;;;;;;;;4764118;30;20121;-92
2024/01/17 23:16:26;;;;;;;5.80;3.42;;;;;;;;;;4763926;30;20063;-94
2024/01/17 23:18:52;;;;;;;5.95;2.88;;;;;;;;;;4741757;30;20056;-94
2024/01/17 23:21:18;;;;;;;9.68;3.53;;;;;;;;;;4741917;30;20056;-96
2024/01/17 23:23:45;;;;;;;7.85;2.80;;;;;;;;;;4741069;30;20151;-95
2024/01/17 23:26:11;;;;;;;7.90;2.90;;;;;;;;;;4743126;30;20113;-95
2024/01/17 23:28:37;;;;;;;7.10;2.65;;;;;;;;;;4742413;30;20407;-95
2024/01/17 23:31:03;;;;;;;3.65;3.30;;;;;;;;;;4758828;30;20142;-95
2024/01/17 23:33:30;;;;;;;2.80;2.55;;;;;;;;;;4741444;30;20052;-95
2024/01/17 23:35:56;;;;;;;4.50;2.47;;;;;;;;;;4746288;30;20053;-95
2024/01/17 23:38:22;;;;;;;8.02;3.28;;;;;;;;;;4761085;30;20059;-96
2024/01/17 23:40:51;;;;;;;7.50;2.22;;;;;;;;;;4764577;30;20122;-96
2024/01/17 23:43:18;;;;;;;3.13;2.53;;;;;;;;;;4766527;30;20131;-95
2024/01/17 23:45:44;;;;;;;3.63;2.05;;;;;;;;;;4764208;30;20055;-96
2024/01/17 23:48:10;;;;;;;5.20;2.50;;;;;;;;;;4756790;30;20052;-95
2024/01/17 23:50:42;;;;;;;5.97;3.13;;;;;;;;;;4751758;30;20113;-96
2024/01/17 23:53:08;;;;;;;3.65;2.20;;;;;;;;;;4762619;30;20056;-96
2024/01/17 23:55:34;;;;;;;7.90;1.98;;;;;;;;;;4764667;30;20106;-96
2024/01/17 23:58:05;;;;;;;4.13;1.60;;;;;;;;;;4761559;30;20110;-96
